sensor_id;sensor_type;location;lat;lon;timestamp;P1;durP1;ratioP1;P2;durP2;ratioP2
20173;SDS011;10246;50.620;7.232;2022-12-07T00:00:44;15.67;;;9.53;;
20173;SDS011;10246;50.620;7.232;2022-12-07T00:03:10;13.90;;;9.23;;
20173;SDS011;10246;50.620;7.232;2022-12-07T00:05:37;14.40;;;8.87;;
20173;SDS011;10246;50.620;7.232;2022-12-07T00:08:05;16.03;;;9.60;;
20173;SDS011;10246;50.620;7.232;2022-12-07T00:10:32;16.27;;;9.77;;
20173;SDS011;10246;50.620;7.232;2022-12-07T00:13:00;16.47;;;9.30;;
20173;SDS011;10246;50.620;7.232;2022-12-07T00:15:27;17.53;;;9.60;;
20173;SDS011;10246;50.620;7.232;2022-12-07T00:17:54;16.57;;;9.20;;
20173;SDS011;10246;50.620;7.232;2022-12-07T00:20:21;17.87;;;9.90;;
20173;SDS011;10246;50.620;7.232;2022-12-07T00:22:47;17.17;;;10.33;;
20173;SDS011;10246;50.620;7.232;2022-12-07T00:25:15;19.23;;;9.77;;
20173;SDS011;10246;50.620;7.232;2022-12-07T00:27:42;16.67;;;9.30;;
20173;SDS011;10246;50.620;7.232;2022-12-07T00:30:09;18.30;;;10.40;;
20173;SDS011;10246;50.620;7.232;2022-12-07T00:32:37;18.07;;;10.07;;
20173;SDS011;10246;50.620;7.232;2022-12-07T00:35:04;16.87;;;10.10;;
20173;SDS011;10246;50.620;7.232;2022-12-07T00:37:31;18.73;;;10.70;;
20173;SDS011;10246;50.620;7.232;2022-12-07T00:39:58;18.40;;;11.30;;
20173;SDS011;10246;50.620;7.232;2022-12-07T00:42:26;17.03;;;10.13;;
20173;SDS011;10246;50.620;7.232;2022-12-07T00:44:52;17.13;;;10.20;;
20173;SDS011;10246;50.620;7.232;2022-12-07T00:47:19;19.00;;;10.53;;
20173;SDS011;10246;50.620;7.232;2022-12-07T00:49:46;17.80;;;10.13;;
20173;SDS011;10246;50.620;7.232;2022-12-07T00:52:13;14.03;;;8.90;;
20173;SDS011;10246;50.620;7.232;2022-12-07T00:54:40;16.47;;;9.50;;
20173;SDS011;10246;50.620;7.232;2022-12-07T00:57:07;15.87;;;9.90;;
20173;SDS011;10246;50.620;7.232;2022-12-07T00:59:35;14.87;;;9.43;;
20173;SDS011;10246;50.620;7.232;2022-12-07T01:02:03;15.97;;;9.17;;
20173;SDS011;10246;50.620;7.232;2022-12-07T01:04:29;16.03;;;9.27;;
20173;SDS011;10246;50.620;7.232;2022-12-07T01:06:59;16.73;;;9.97;;
20173;SDS011;10246;50.620;7.232;2022-12-07T01:09:26;16.20;;;9.93;;
20173;SDS011;10246;50.620;7.232;2022-12-07T01:11:52;15.57;;;9.40;;
20173;SDS011;10246;50.620;7.232;2022-12-07T01:14:19;16.80;;;10.00;;
20173;SDS011;10246;50.620;7.232;2022-12-07T01:16:47;14.97;;;9.07;;
20173;SDS011;10246;50.620;7.232;2022-12-07T01:19:14;16.10;;;9.63;;
20173;SDS011;10246;50.620;7.232;2022-12-07T01:21:41;15.33;;;9.17;;
20173;SDS011;10246;50.620;7.232;2022-12-07T01:24:09;18.60;;;11.83;;
20173;SDS011;10246;50.620;7.232;2022-12-07T01:26:37;17.47;;;10.67;;
20173;SDS011;10246;50.620;7.232;2022-12-07T01:29:04;16.80;;;10.27;;
20173;SDS011;10246;50.620;7.232;2022-12-07T01:31:31;18.03;;;9.43;;
20173;SDS011;10246;50.620;7.232;2022-12-07T01:34:00;17.73;;;10.03;;
20173;SDS011;10246;50.620;7.232;2022-12-07T01:36:29;15.60;;;9.67;;
20173;SDS011;10246;50.620;7.232;2022-12-07T01:38:59;16.30;;;10.30;;
20173;SDS011;10246;50.620;7.232;2022-12-07T01:41:29;17.63;;;10.03;;
20173;SDS011;10246;50.620;7.232;2022-12-07T01:44:14;15.33;;;9.53;;
20173;SDS011;10246;50.620;7.232;2022-12-07T01:46:44;17.23;;;9.83;;
20173;SDS011;10246;50.620;7.232;2022-12-07T01:49:14;16.10;;;10.00;;
20173;SDS011;10246;50.620;7.232;2022-12-07T01:51:45;15.53;;;9.00;;
20173;SDS011;10246;50.620;7.232;2022-12-07T01:54:13;15.53;;;8.57;;
20173;SDS011;10246;50.620;7.232;2022-12-07T01:56:42;17.60;;;10.07;;
20173;SDS011;10246;50.620;7.232;2022-12-07T01:59:14;17.53;;;10.17;;
20173;SDS011;10246;50.620;7.232;2022-12-07T02:01:42;19.27;;;11.00;;
20173;SDS011;10246;50.620;7.232;2022-12-07T02:04:09;17.30;;;10.30;;
20173;SDS011;10246;50.620;7.232;2022-12-07T02:06:38;17.17;;;10.50;;
20173;SDS011;10246;50.620;7.232;2022-12-07T02:09:06;17.20;;;10.23;;
20173;SDS011;10246;50.620;7.232;2022-12-07T02:11:33;17.23;;;10.43;;
20173;SDS011;10246;50.620;7.232;2022-12-07T02:14:00;17.30;;;10.20;;
20173;SDS011;10246;50.620;7.232;2022-12-07T02:16:29;16.07;;;10.70;;
20173;SDS011;10246;50.620;7.232;2022-12-07T02:19:08;19.70;;;11.13;;
20173;SDS011;10246;50.620;7.232;2022-12-07T02:22:05;19.47;;;11.90;;
20173;SDS011;10246;50.620;7.232;2022-12-07T02:24:51;21.30;;;11.37;;
20173;SDS011;10246;50.620;7.232;2022-12-07T02:27:28;22.40;;;13.47;;
20173;SDS011;10246;50.620;7.232;2022-12-07T02:30:07;20.70;;;11.90;;
20173;SDS011;10246;50.620;7.232;2022-12-07T02:32:40;22.50;;;12.63;;
20173;SDS011;10246;50.620;7.232;2022-12-07T02:35:11;22.50;;;13.17;;
20173;SDS011;10246;50.620;7.232;2022-12-07T02:37:47;22.00;;;12.80;;
20173;SDS011;10246;50.620;7.232;2022-12-07T02:40:19;22.90;;;13.40;;
20173;SDS011;10246;50.620;7.232;2022-12-07T02:42:50;23.13;;;13.20;;
20173;SDS011;10246;50.620;7.232;2022-12-07T02:45:22;23.73;;;13.33;;
20173;SDS011;10246;50.620;7.232;2022-12-07T02:47:53;24.60;;;14.80;;
20173;SDS011;10246;50.620;7.232;2022-12-07T02:50:25;23.90;;;15.27;;
20173;SDS011;10246;50.620;7.232;2022-12-07T02:52:53;26.37;;;15.50;;
20173;SDS011;10246;50.620;7.232;2022-12-07T02:55:21;28.27;;;15.10;;
20173;SDS011;10246;50.620;7.232;2022-12-07T03:00:48;26.53;;;16.00;;
20173;SDS011;10246;50.620;7.232;2022-12-07T03:03:20;27.90;;;15.53;;
20173;SDS011;10246;50.620;7.232;2022-12-07T03:05:53;24.60;;;15.00;;
20173;SDS011;10246;50.620;7.232;2022-12-07T03:08:30;28.13;;;15.47;;
20173;SDS011;10246;50.620;7.232;2022-12-07T03:11:05;25.93;;;15.20;;
20173;SDS011;10246;50.620;7.232;2022-12-07T03:13:36;26.10;;;16.00;;
20173;SDS011;10246;50.620;7.232;2022-12-07T03:16:10;26.53;;;15.57;;
20173;SDS011;10246;50.620;7.232;2022-12-07T03:18:43;23.90;;;14.40;;
20173;SDS011;10246;50.620;7.232;2022-12-07T03:21:14;25.03;;;15.47;;
20173;SDS011;10246;50.620;7.232;2022-12-07T03:23:43;24.17;;;14.73;;
20173;SDS011;10246;50.620;7.232;2022-12-07T03:26:17;25.63;;;16.13;;
20173;SDS011;10246;50.620;7.232;2022-12-07T03:28:47;24.90;;;14.60;;
20173;SDS011;10246;50.620;7.232;2022-12-07T03:31:20;25.87;;;14.90;;
20173;SDS011;10246;50.620;7.232;2022-12-07T03:33:52;25.57;;;15.43;;
20173;SDS011;10246;50.620;7.232;2022-12-07T03:36:23;24.33;;;14.73;;
20173;SDS011;10246;50.620;7.232;2022-12-07T03:38:55;25.73;;;14.90;;
20173;SDS011;10246;50.620;7.232;2022-12-07T03:41:28;24.43;;;15.33;;
20173;SDS011;10246;50.620;7.232;2022-12-07T03:43:58;23.13;;;14.30;;
20173;SDS011;10246;50.620;7.232;2022-12-07T03:46:29;23.50;;;15.07;;
20173;SDS011;10246;50.620;7.232;2022-12-07T03:49:05;24.70;;;14.43;;
20173;SDS011;10246;50.620;7.232;2022-12-07T03:51:37;25.90;;;15.03;;
20173;SDS011;10246;50.620;7.232;2022-12-07T03:54:09;28.07;;;16.50;;
20173;SDS011;10246;50.620;7.232;2022-12-07T03:56:40;24.03;;;15.53;;
20173;SDS011;10246;50.620;7.232;2022-12-07T03:59:09;26.03;;;15.33;;
20173;SDS011;10246;50.620;7.232;2022-12-07T04:01:39;28.77;;;16.00;;
20173;SDS011;10246;50.620;7.232;2022-12-07T04:04:07;27.53;;;15.80;;
20173;SDS011;10246;50.620;7.232;2022-12-07T04:06:34;23.63;;;15.03;;
20173;SDS011;10246;50.620;7.232;2022-12-07T04:09:01;23.73;;;15.60;;
20173;SDS011;10246;50.620;7.232;2022-12-07T04:11:28;25.53;;;14.97;;
20173;SDS011;10246;50.620;7.232;2022-12-07T04:13:55;27.07;;;16.13;;
20173;SDS011;10246;50.620;7.232;2022-12-07T04:16:41;25.00;;;15.13;;
20173;SDS011;10246;50.620;7.232;2022-12-07T04:19:07;25.07;;;15.83;;
20173;SDS011;10246;50.620;7.232;2022-12-07T04:21:34;25.97;;;16.00;;
20173;SDS011;10246;50.620;7.232;2022-12-07T04:24:02;27.57;;;15.50;;
20173;SDS011;10246;50.620;7.232;2022-12-07T04:26:29;26.93;;;15.93;;
20173;SDS011;10246;50.620;7.232;2022-12-07T04:28:56;27.50;;;16.47;;
20173;SDS011;10246;50.620;7.232;2022-12-07T04:31:22;30.07;;;17.20;;
20173;SDS011;10246;50.620;7.232;2022-12-07T04:33:50;25.60;;;15.80;;
20173;SDS011;10246;50.620;7.232;2022-12-07T04:36:17;26.23;;;16.13;;
20173;SDS011;10246;50.620;7.232;2022-12-07T04:38:44;26.93;;;16.33;;
20173;SDS011;10246;50.620;7.232;2022-12-07T04:41:11;26.63;;;16.30;;
20173;SDS011;10246;50.620;7.232;2022-12-07T04:43:38;24.57;;;16.33;;
20173;SDS011;10246;50.620;7.232;2022-12-07T04:46:05;28.67;;;16.17;;
20173;SDS011;10246;50.620;7.232;2022-12-07T04:48:32;27.17;;;16.17;;
20173;SDS011;10246;50.620;7.232;2022-12-07T04:51:01;27.17;;;16.27;;
20173;SDS011;10246;50.620;7.232;2022-12-07T04:53:29;26.13;;;16.10;;
20173;SDS011;10246;50.620;7.232;2022-12-07T04:55:56;24.63;;;15.47;;
20173;SDS011;10246;50.620;7.232;2022-12-07T04:58:23;26.27;;;15.97;;
20173;SDS011;10246;50.620;7.232;2022-12-07T05:00:53;24.97;;;15.27;;
20173;SDS011;10246;50.620;7.232;2022-12-07T05:03:20;23.80;;;14.50;;
20173;SDS011;10246;50.620;7.232;2022-12-07T05:05:47;27.73;;;14.63;;
20173;SDS011;10246;50.620;7.232;2022-12-07T05:08:15;25.57;;;14.73;;
20173;SDS011;10246;50.620;7.232;2022-12-07T05:10:41;18.60;;;13.20;;
20173;SDS011;10246;50.620;7.232;2022-12-07T05:13:08;19.80;;;12.47;;
20173;SDS011;10246;50.620;7.232;2022-12-07T05:15:35;23.00;;;12.97;;
20173;SDS011;10246;50.620;7.232;2022-12-07T05:18:01;20.00;;;12.20;;
20173;SDS011;10246;50.620;7.232;2022-12-07T05:20:29;27.20;;;15.80;;
20173;SDS011;10246;50.620;7.232;2022-12-07T05:22:55;25.27;;;14.97;;
20173;SDS011;10246;50.620;7.232;2022-12-07T05:25:24;26.50;;;15.53;;
20173;SDS011;10246;50.620;7.232;2022-12-07T05:27:51;25.03;;;14.53;;
20173;SDS011;10246;50.620;7.232;2022-12-07T05:30:18;24.23;;;15.07;;
20173;SDS011;10246;50.620;7.232;2022-12-07T05:32:45;23.93;;;15.17;;
20173;SDS011;10246;50.620;7.232;2022-12-07T05:35:11;24.40;;;14.87;;
20173;SDS011;10246;50.620;7.232;2022-12-07T05:37:38;26.20;;;15.63;;
20173;SDS011;10246;50.620;7.232;2022-12-07T05:40:05;26.17;;;15.33;;
20173;SDS011;10246;50.620;7.232;2022-12-07T05:42:34;26.47;;;15.80;;
20173;SDS011;10246;50.620;7.232;2022-12-07T05:45:02;24.87;;;15.17;;
20173;SDS011;10246;50.620;7.232;2022-12-07T05:47:30;28.30;;;14.87;;
20173;SDS011;10246;50.620;7.232;2022-12-07T05:49:57;26.73;;;16.40;;
20173;SDS011;10246;50.620;7.232;2022-12-07T05:52:25;29.53;;;16.90;;
20173;SDS011;10246;50.620;7.232;2022-12-07T05:54:52;28.50;;;16.33;;
20173;SDS011;10246;50.620;7.232;2022-12-07T05:57:18;24.60;;;15.33;;
20173;SDS011;10246;50.620;7.232;2022-12-07T05:59:47;25.93;;;15.30;;
20173;SDS011;10246;50.620;7.232;2022-12-07T06:02:13;27.53;;;16.33;;
20173;SDS011;10246;50.620;7.232;2022-12-07T06:04:42;26.77;;;15.20;;
20173;SDS011;10246;50.620;7.232;2022-12-07T06:07:10;22.83;;;14.30;;
20173;SDS011;10246;50.620;7.232;2022-12-07T06:09:39;28.00;;;14.90;;
20173;SDS011;10246;50.620;7.232;2022-12-07T06:12:06;24.13;;;14.57;;
20173;SDS011;10246;50.620;7.232;2022-12-07T06:14:54;24.17;;;15.13;;
20173;SDS011;10246;50.620;7.232;2022-12-07T06:17:21;26.37;;;15.20;;
20173;SDS011;10246;50.620;7.232;2022-12-07T06:19:47;26.77;;;15.33;;
20173;SDS011;10246;50.620;7.232;2022-12-07T06:22:14;29.40;;;15.97;;
20173;SDS011;10246;50.620;7.232;2022-12-07T06:24:41;23.33;;;14.10;;
20173;SDS011;10246;50.620;7.232;2022-12-07T06:27:08;25.27;;;14.73;;
20173;SDS011;10246;50.620;7.232;2022-12-07T06:29:35;24.33;;;13.70;;
20173;SDS011;10246;50.620;7.232;2022-12-07T06:32:04;23.93;;;13.67;;
20173;SDS011;10246;50.620;7.232;2022-12-07T06:34:31;22.73;;;13.93;;
20173;SDS011;10246;50.620;7.232;2022-12-07T06:36:57;22.93;;;13.23;;
20173;SDS011;10246;50.620;7.232;2022-12-07T06:39:25;21.67;;;13.30;;
20173;SDS011;10246;50.620;7.232;2022-12-07T06:41:53;20.30;;;12.23;;
20173;SDS011;10246;50.620;7.232;2022-12-07T06:44:20;23.40;;;12.90;;
20173;SDS011;10246;50.620;7.232;2022-12-07T06:46:47;21.33;;;13.40;;
20173;SDS011;10246;50.620;7.232;2022-12-07T06:49:16;21.77;;;13.80;;
20173;SDS011;10246;50.620;7.232;2022-12-07T06:51:43;23.70;;;13.70;;
20173;SDS011;10246;50.620;7.232;2022-12-07T06:54:10;24.57;;;14.43;;
20173;SDS011;10246;50.620;7.232;2022-12-07T06:56:37;24.73;;;13.37;;
20173;SDS011;10246;50.620;7.232;2022-12-07T06:59:05;25.10;;;13.17;;
20173;SDS011;10246;50.620;7.232;2022-12-07T07:01:32;25.37;;;13.83;;
20173;SDS011;10246;50.620;7.232;2022-12-07T07:04:01;19.67;;;12.67;;
20173;SDS011;10246;50.620;7.232;2022-12-07T07:06:29;17.57;;;11.80;;
20173;SDS011;10246;50.620;7.232;2022-12-07T07:08:56;23.30;;;11.93;;
20173;SDS011;10246;50.620;7.232;2022-12-07T07:11:23;18.90;;;10.47;;
20173;SDS011;10246;50.620;7.232;2022-12-07T07:13:49;17.33;;;10.63;;
20173;SDS011;10246;50.620;7.232;2022-12-07T07:16:18;17.63;;;11.30;;
20173;SDS011;10246;50.620;7.232;2022-12-07T07:18:45;16.43;;;10.27;;
20173;SDS011;10246;50.620;7.232;2022-12-07T07:21:12;18.07;;;10.30;;
20173;SDS011;10246;50.620;7.232;2022-12-07T07:23:40;18.40;;;10.90;;
20173;SDS011;10246;50.620;7.232;2022-12-07T07:26:06;21.07;;;11.77;;
20173;SDS011;10246;50.620;7.232;2022-12-07T07:28:33;24.37;;;12.83;;
20173;SDS011;10246;50.620;7.232;2022-12-07T07:31:00;19.40;;;11.60;;
20173;SDS011;10246;50.620;7.232;2022-12-07T07:33:26;20.37;;;11.37;;
20173;SDS011;10246;50.620;7.232;2022-12-07T07:35:53;22.00;;;12.00;;
20173;SDS011;10246;50.620;7.232;2022-12-07T07:38:20;22.37;;;11.40;;
20173;SDS011;10246;50.620;7.232;2022-12-07T07:40:48;17.93;;;11.83;;
20173;SDS011;10246;50.620;7.232;2022-12-07T07:43:14;18.73;;;11.83;;
20173;SDS011;10246;50.620;7.232;2022-12-07T07:45:41;16.63;;;10.27;;
20173;SDS011;10246;50.620;7.232;2022-12-07T07:48:08;16.40;;;10.43;;
20173;SDS011;10246;50.620;7.232;2022-12-07T07:50:34;21.83;;;11.53;;
20173;SDS011;10246;50.620;7.232;2022-12-07T07:53:01;19.80;;;11.73;;
20173;SDS011;10246;50.620;7.232;2022-12-07T07:55:28;20.40;;;11.70;;
20173;SDS011;10246;50.620;7.232;2022-12-07T07:57:56;18.93;;;11.30;;
20173;SDS011;10246;50.620;7.232;2022-12-07T08:00:23;19.43;;;10.80;;
20173;SDS011;10246;50.620;7.232;2022-12-07T08:02:50;15.80;;;10.13;;
20173;SDS011;10246;50.620;7.232;2022-12-07T08:05:17;19.53;;;10.57;;
20173;SDS011;10246;50.620;7.232;2022-12-07T08:07:43;19.10;;;10.80;;
20173;SDS011;10246;50.620;7.232;2022-12-07T08:10:11;18.20;;;10.70;;
20173;SDS011;10246;50.620;7.232;2022-12-07T08:12:38;16.63;;;9.63;;
20173;SDS011;10246;50.620;7.232;2022-12-07T08:15:28;16.43;;;10.07;;
20173;SDS011;10246;50.620;7.232;2022-12-07T08:17:56;16.37;;;9.17;;
20173;SDS011;10246;50.620;7.232;2022-12-07T08:20:22;16.47;;;10.33;;
20173;SDS011;10246;50.620;7.232;2022-12-07T08:22:49;15.13;;;9.37;;
20173;SDS011;10246;50.620;7.232;2022-12-07T08:25:16;18.13;;;10.07;;
20173;SDS011;10246;50.620;7.232;2022-12-07T08:27:42;19.50;;;10.30;;
20173;SDS011;10246;50.620;7.232;2022-12-07T08:30:09;16.73;;;10.10;;
20173;SDS011;10246;50.620;7.232;2022-12-07T08:32:38;16.03;;;9.63;;
20173;SDS011;10246;50.620;7.232;2022-12-07T08:35:05;20.40;;;10.40;;
20173;SDS011;10246;50.620;7.232;2022-12-07T08:37:32;19.93;;;10.00;;
20173;SDS011;10246;50.620;7.232;2022-12-07T08:39:59;18.33;;;10.03;;
20173;SDS011;10246;50.620;7.232;2022-12-07T08:42:26;19.33;;;9.83;;
20173;SDS011;10246;50.620;7.232;2022-12-07T08:44:54;20.87;;;11.07;;
20173;SDS011;10246;50.620;7.232;2022-12-07T08:47:21;18.27;;;10.97;;
20173;SDS011;10246;50.620;7.232;2022-12-07T08:49:50;16.97;;;10.13;;
20173;SDS011;10246;50.620;7.232;2022-12-07T08:52:19;17.07;;;10.30;;
20173;SDS011;10246;50.620;7.232;2022-12-07T08:54:46;16.70;;;10.33;;
20173;SDS011;10246;50.620;7.232;2022-12-07T08:57:18;17.83;;;10.00;;
20173;SDS011;10246;50.620;7.232;2022-12-07T08:59:48;19.47;;;10.43;;
20173;SDS011;10246;50.620;7.232;2022-12-07T09:02:14;20.83;;;11.23;;
20173;SDS011;10246;50.620;7.232;2022-12-07T09:04:41;19.07;;;10.83;;
20173;SDS011;10246;50.620;7.232;2022-12-07T09:07:09;20.37;;;10.63;;
20173;SDS011;10246;50.620;7.232;2022-12-07T09:09:36;19.43;;;10.87;;
20173;SDS011;10246;50.620;7.232;2022-12-07T09:12:03;20.50;;;11.00;;
20173;SDS011;10246;50.620;7.232;2022-12-07T09:14:30;19.17;;;10.57;;
20173;SDS011;10246;50.620;7.232;2022-12-07T09:17:04;16.83;;;10.37;;
20173;SDS011;10246;50.620;7.232;2022-12-07T09:19:32;18.67;;;10.17;;
20173;SDS011;10246;50.620;7.232;2022-12-07T09:21:58;16.90;;;9.77;;
20173;SDS011;10246;50.620;7.232;2022-12-07T09:24:27;20.17;;;11.17;;
20173;SDS011;10246;50.620;7.232;2022-12-07T09:26:54;17.37;;;10.57;;
20173;SDS011;10246;50.620;7.232;2022-12-07T09:29:21;17.37;;;10.73;;
20173;SDS011;10246;50.620;7.232;2022-12-07T09:31:47;19.63;;;10.17;;
20173;SDS011;10246;50.620;7.232;2022-12-07T09:34:14;16.10;;;9.37;;
20173;SDS011;10246;50.620;7.232;2022-12-07T09:36:41;16.77;;;9.83;;
20173;SDS011;10246;50.620;7.232;2022-12-07T09:39:08;18.80;;;10.03;;
20173;SDS011;10246;50.620;7.232;2022-12-07T09:41:38;16.50;;;9.43;;
20173;SDS011;10246;50.620;7.232;2022-12-07T09:44:07;17.50;;;9.73;;
20173;SDS011;10246;50.620;7.232;2022-12-07T09:46:38;17.70;;;10.60;;
20173;SDS011;10246;50.620;7.232;2022-12-07T09:49:08;15.03;;;9.43;;
20173;SDS011;10246;50.620;7.232;2022-12-07T09:51:38;20.57;;;10.30;;
20173;SDS011;10246;50.620;7.232;2022-12-07T09:54:05;19.17;;;10.67;;
20173;SDS011;10246;50.620;7.232;2022-12-07T09:56:32;14.77;;;8.83;;
20173;SDS011;10246;50.620;7.232;2022-12-07T09:59:00;19.43;;;8.73;;
20173;SDS011;10246;50.620;7.232;2022-12-07T10:01:29;17.93;;;8.57;;
20173;SDS011;10246;50.620;7.232;2022-12-07T10:03:59;15.13;;;8.67;;
20173;SDS011;10246;50.620;7.232;2022-12-07T10:06:31;16.53;;;8.50;;
20173;SDS011;10246;50.620;7.232;2022-12-07T10:08:58;13.90;;;8.33;;
20173;SDS011;10246;50.620;7.232;2022-12-07T10:11:25;13.67;;;8.00;;
20173;SDS011;10246;50.620;7.232;2022-12-07T10:13:52;14.80;;;9.07;;
20173;SDS011;10246;50.620;7.232;2022-12-07T10:16:32;16.13;;;8.87;;
20173;SDS011;10246;50.620;7.232;2022-12-07T10:19:17;12.43;;;8.23;;
20173;SDS011;10246;50.620;7.232;2022-12-07T10:21:59;12.70;;;8.43;;
20173;SDS011;10246;50.620;7.232;2022-12-07T10:24:29;17.60;;;8.23;;
20173;SDS011;10246;50.620;7.232;2022-12-07T10:26:56;13.73;;;7.67;;
20173;SDS011;10246;50.620;7.232;2022-12-07T10:29:24;12.90;;;7.90;;
20173;SDS011;10246;50.620;7.232;2022-12-07T10:31:58;13.93;;;7.43;;
20173;SDS011;10246;50.620;7.232;2022-12-07T10:34:27;14.53;;;7.37;;
20173;SDS011;10246;50.620;7.232;2022-12-07T10:37:07;13.73;;;7.50;;
20173;SDS011;10246;50.620;7.232;2022-12-07T10:39:40;14.60;;;6.60;;
20173;SDS011;10246;50.620;7.232;2022-12-07T10:42:15;13.03;;;5.77;;
20173;SDS011;10246;50.620;7.232;2022-12-07T10:44:43;10.47;;;5.87;;
20173;SDS011;10246;50.620;7.232;2022-12-07T10:47:25;9.43;;;5.27;;
20173;SDS011;10246;50.620;7.232;2022-12-07T10:53:01;9.73;;;5.17;;
20173;SDS011;10246;50.620;7.232;2022-12-07T10:55:39;11.27;;;6.07;;
20173;SDS011;10246;50.620;7.232;2022-12-07T10:58:19;11.60;;;5.87;;
20173;SDS011;10246;50.620;7.232;2022-12-07T11:00:59;11.30;;;5.43;;
20173;SDS011;10246;50.620;7.232;2022-12-07T11:06:30;7.63;;;4.13;;
20173;SDS011;10246;50.620;7.232;2022-12-07T11:09:07;11.63;;;4.90;;
20173;SDS011;10246;50.620;7.232;2022-12-07T11:11:56;12.57;;;5.33;;
20173;SDS011;10246;50.620;7.232;2022-12-07T11:14:31;9.07;;;4.73;;
20173;SDS011;10246;50.620;7.232;2022-12-07T11:17:07;8.10;;;5.23;;
20173;SDS011;10246;50.620;7.232;2022-12-07T11:19:46;9.77;;;4.80;;
20173;SDS011;10246;50.620;7.232;2022-12-07T11:22:23;9.93;;;4.90;;
20173;SDS011;10246;50.620;7.232;2022-12-07T11:24:57;6.47;;;4.23;;
20173;SDS011;10246;50.620;7.232;2022-12-07T11:27:43;8.30;;;4.40;;
20173;SDS011;10246;50.620;7.232;2022-12-07T11:30:16;6.37;;;4.00;;
20173;SDS011;10246;50.620;7.232;2022-12-07T11:32:55;10.27;;;4.33;;
20173;SDS011;10246;50.620;7.232;2022-12-07T11:35:34;8.67;;;4.07;;
20173;SDS011;10246;50.620;7.232;2022-12-07T11:38:10;9.30;;;4.20;;
20173;SDS011;10246;50.620;7.232;2022-12-07T11:40:40;8.07;;;4.00;;
20173;SDS011;10246;50.620;7.232;2022-12-07T11:43:13;11.27;;;3.50;;
20173;SDS011;10246;50.620;7.232;2022-12-07T11:45:46;7.40;;;3.57;;
20173;SDS011;10246;50.620;7.232;2022-12-07T11:48:19;6.57;;;3.60;;
20173;SDS011;10246;50.620;7.232;2022-12-07T11:50:52;7.77;;;3.53;;
20173;SDS011;10246;50.620;7.232;2022-12-07T11:53:24;4.53;;;3.00;;
20173;SDS011;10246;50.620;7.232;2022-12-07T11:55:54;6.60;;;3.00;;
20173;SDS011;10246;50.620;7.232;2022-12-07T11:58:35;5.63;;;2.90;;
20173;SDS011;10246;50.620;7.232;2022-12-07T12:01:16;9.47;;;3.30;;
20173;SDS011;10246;50.620;7.232;2022-12-07T12:04:01;6.77;;;3.40;;
20173;SDS011;10246;50.620;7.232;2022-12-07T12:06:34;5.20;;;2.73;;
20173;SDS011;10246;50.620;7.232;2022-12-07T12:09:02;5.00;;;2.70;;
20173;SDS011;10246;50.620;7.232;2022-12-07T12:11:39;9.03;;;3.23;;
20173;SDS011;10246;50.620;7.232;2022-12-07T12:14:24;4.07;;;2.67;;
20173;SDS011;10246;50.620;7.232;2022-12-07T12:17:05;7.80;;;3.00;;
20173;SDS011;10246;50.620;7.232;2022-12-07T12:19:43;4.70;;;2.70;;
20173;SDS011;10246;50.620;7.232;2022-12-07T12:22:28;6.63;;;2.80;;
20173;SDS011;10246;50.620;7.232;2022-12-07T12:25:02;5.63;;;2.43;;
20173;SDS011;10246;50.620;7.232;2022-12-07T12:27:31;4.13;;;2.27;;
20173;SDS011;10246;50.620;7.232;2022-12-07T12:30:02;6.83;;;2.43;;
20173;SDS011;10246;50.620;7.232;2022-12-07T12:32:34;5.93;;;2.00;;
20173;SDS011;10246;50.620;7.232;2022-12-07T12:35:21;4.13;;;2.20;;
20173;SDS011;10246;50.620;7.232;2022-12-07T12:37:57;7.03;;;2.73;;
20173;SDS011;10246;50.620;7.232;2022-12-07T12:40:52;8.33;;;1.90;;
20173;SDS011;10246;50.620;7.232;2022-12-07T12:58:38;5.90;;;1.97;;
20173;SDS011;10246;50.620;7.232;2022-12-07T13:04:18;7.33;;;2.37;;
20173;SDS011;10246;50.620;7.232;2022-12-07T13:07:10;5.00;;;2.33;;
20173;SDS011;10246;50.620;7.232;2022-12-07T13:09:39;8.83;;;3.00;;
20173;SDS011;10246;50.620;7.232;2022-12-07T13:12:12;4.77;;;2.50;;
20173;SDS011;10246;50.620;7.232;2022-12-07T13:14:43;7.60;;;2.40;;
20173;SDS011;10246;50.620;7.232;2022-12-07T13:20:40;5.63;;;2.60;;
20173;SDS011;10246;50.620;7.232;2022-12-07T13:23:16;9.97;;;3.10;;
20173;SDS011;10246;50.620;7.232;2022-12-07T13:25:51;10.07;;;2.70;;
20173;SDS011;10246;50.620;7.232;2022-12-07T13:28:23;11.10;;;2.83;;
20173;SDS011;10246;50.620;7.232;2022-12-07T13:31:11;5.90;;;2.80;;
20173;SDS011;10246;50.620;7.232;2022-12-07T13:33:49;6.47;;;3.30;;
20173;SDS011;10246;50.620;7.232;2022-12-07T13:36:19;10.53;;;3.80;;
20173;SDS011;10246;50.620;7.232;2022-12-07T13:38:48;8.07;;;3.90;;
20173;SDS011;10246;50.620;7.232;2022-12-07T13:41:18;5.73;;;3.47;;
20173;SDS011;10246;50.620;7.232;2022-12-07T13:43:48;7.83;;;3.50;;
20173;SDS011;10246;50.620;7.232;2022-12-07T13:46:18;6.47;;;3.47;;
20173;SDS011;10246;50.620;7.232;2022-12-07T13:48:50;5.67;;;3.00;;
20173;SDS011;10246;50.620;7.232;2022-12-07T13:51:18;5.37;;;2.67;;
20173;SDS011;10246;50.620;7.232;2022-12-07T13:53:47;4.53;;;1.90;;
20173;SDS011;10246;50.620;7.232;2022-12-07T13:56:15;4.07;;;1.80;;
20173;SDS011;10246;50.620;7.232;2022-12-07T13:58:41;2.40;;;1.70;;
20173;SDS011;10246;50.620;7.232;2022-12-07T14:01:09;9.47;;;2.87;;
20173;SDS011;10246;50.620;7.232;2022-12-07T14:03:39;7.00;;;2.93;;
20173;SDS011;10246;50.620;7.232;2022-12-07T14:06:17;8.53;;;2.97;;
20173;SDS011;10246;50.620;7.232;2022-12-07T14:08:50;8.40;;;3.53;;
20173;SDS011;10246;50.620;7.232;2022-12-07T14:11:31;10.73;;;3.50;;
20173;SDS011;10246;50.620;7.232;2022-12-07T14:13:58;6.10;;;3.20;;
20173;SDS011;10246;50.620;7.232;2022-12-07T14:16:27;7.73;;;3.50;;
20173;SDS011;10246;50.620;7.232;2022-12-07T14:18:58;14.00;;;3.57;;
20173;SDS011;10246;50.620;7.232;2022-12-07T14:21:26;7.93;;;3.13;;
20173;SDS011;10246;50.620;7.232;2022-12-07T14:24:11;6.20;;;2.80;;
20173;SDS011;10246;50.620;7.232;2022-12-07T14:26:42;7.30;;;3.80;;
20173;SDS011;10246;50.620;7.232;2022-12-07T14:29:20;7.50;;;3.83;;
20173;SDS011;10246;50.620;7.232;2022-12-07T14:31:48;8.27;;;4.50;;
20173;SDS011;10246;50.620;7.232;2022-12-07T14:34:19;7.17;;;3.83;;
20173;SDS011;10246;50.620;7.232;2022-12-07T14:36:46;5.20;;;3.67;;
20173;SDS011;10246;50.620;7.232;2022-12-07T14:39:13;12.70;;;5.30;;
20173;SDS011;10246;50.620;7.232;2022-12-07T14:41:40;12.33;;;5.37;;
20173;SDS011;10246;50.620;7.232;2022-12-07T14:44:16;6.63;;;4.00;;
20173;SDS011;10246;50.620;7.232;2022-12-07T14:46:44;5.73;;;3.23;;
20173;SDS011;10246;50.620;7.232;2022-12-07T14:49:10;5.40;;;3.50;;
20173;SDS011;10246;50.620;7.232;2022-12-07T14:51:39;7.57;;;4.20;;
20173;SDS011;10246;50.620;7.232;2022-12-07T14:54:07;7.70;;;3.80;;
20173;SDS011;10246;50.620;7.232;2022-12-07T14:56:41;6.90;;;3.60;;
20173;SDS011;10246;50.620;7.232;2022-12-07T14:59:09;8.30;;;3.97;;
20173;SDS011;10246;50.620;7.232;2022-12-07T15:01:37;5.07;;;3.50;;
20173;SDS011;10246;50.620;7.232;2022-12-07T15:04:04;8.03;;;3.80;;
20173;SDS011;10246;50.620;7.232;2022-12-07T15:06:31;4.47;;;2.70;;
20173;SDS011;10246;50.620;7.232;2022-12-07T15:08:59;6.37;;;2.67;;
20173;SDS011;10246;50.620;7.232;2022-12-07T15:11:27;3.50;;;2.20;;
20173;SDS011;10246;50.620;7.232;2022-12-07T15:13:54;3.60;;;2.47;;
20173;SDS011;10246;50.620;7.232;2022-12-07T15:16:38;3.13;;;2.47;;
20173;SDS011;10246;50.620;7.232;2022-12-07T15:19:08;3.03;;;2.10;;